KPIA/PIA METAR and TAF weather

Enter ICAO airport designator
Station Type Date Time Source
KPIA METAR 2019/10/21 01:54 UTC NOAA

KPIA 210154Z 14006KT 9SM CLR 13/09 A2985 RMK AO2 SLP109 T01280094 $


Station Type Date Time Source
KPIA Decoded METAR 2019/10/21 01:54 UTC NOAA

GREATER PEORIA REGIONAL AIRPORT , IL, United States (KPIA) 40-40N 89-41W 205M
Oct 20, 2019 - 09:54 PM EDT / 2019.10.21 0154 UTC
Wind: from the SE (140 degrees) at 7 MPH (6 KT):0
Visibility: 9 mile(s):0
Sky conditions: clear
Temperature: 55.0 F (12.8 C)
Dew Point: 48.9 F (9.4 C)
Relative Humidity: 79%
Pressure (altimeter): 29.85 in. Hg (1010 hPa)
ob: KPIA 210154Z 14006KT 9SM CLR 13/09 A2985 RMK AO2 SLP109 T01280094
cycle: 2

Station Type Date Time Source
KPIA TAF 2019/10/20 18:34 UTC NOAA

TAF KPIA 201731Z 2018/2118 13008KT P6SM SCT035
FM210900 14010G18KT 6SM SHRA BR BKN035
FM211300 16012G21KT P6SM SHRA BKN011

Example: see airport list